createdAt,value
2023-04-15T00:01:12.244Z,64.29
2023-04-15T00:03:39.794Z,64.20
2023-04-15T00:06:07.158Z,64.53
2023-04-15T00:08:34.402Z,64.41
2023-04-15T00:11:03.442Z,64.67
2023-04-15T00:13:30.580Z,64.30
2023-04-15T00:16:00.903Z,64.74
2023-04-15T00:18:29.683Z,64.82
2023-04-15T00:20:56.973Z,64.89
2023-04-15T00:23:24.276Z,64.79
2023-04-15T00:25:52.151Z,64.89
2023-04-15T00:28:19.860Z,65.10
2023-04-15T00:30:47.523Z,65.04
2023-04-15T00:33:16.599Z,65.20
2023-04-15T00:35:43.719Z,65.36
2023-04-15T00:38:10.887Z,65.35
2023-04-15T00:40:38.645Z,65.58
2023-04-15T00:43:05.877Z,65.41
2023-04-15T00:45:33.614Z,65.66
2023-04-15T00:48:00.934Z,65.40
2023-04-15T00:50:28.122Z,65.52
2023-04-15T00:52:58.236Z,65.46
2023-04-15T00:55:26.215Z,65.50
2023-04-15T00:57:53.395Z,65.52
2023-04-15T01:00:21.142Z,65.81
2023-04-15T01:02:48.804Z,65.91
2023-04-15T01:05:18.859Z,66.01
2023-04-15T01:07:47.090Z,66.02
2023-04-15T01:10:14.507Z,66.16
2023-04-15T01:12:42.255Z,66.12
2023-04-15T01:15:11.270Z,66.27
2023-04-15T01:17:39.542Z,66.32
2023-04-15T01:20:10.275Z,66.73
2023-04-15T01:22:37.375Z,66.79
2023-04-15T01:25:12.572Z,66.89
2023-04-15T01:27:42.886Z,66.80
2023-04-15T01:30:10.839Z,67.21
2023-04-15T01:32:38.571Z,67.03
2023-04-15T01:35:06.337Z,67.31
2023-04-15T01:37:33.778Z,67.19
2023-04-15T01:40:01.012Z,67.46
2023-04-15T01:42:28.511Z,67.40
2023-04-15T01:44:58.189Z,67.78
2023-04-15T01:47:28.273Z,67.88
2023-04-15T01:49:56.940Z,68.06
2023-04-15T01:52:24.021Z,68.08
2023-04-15T01:54:51.496Z,67.98
2023-04-15T01:57:18.815Z,68.00
2023-04-15T01:59:46.251Z,68.19
2023-04-15T02:02:13.412Z,68.48
2023-04-15T02:04:40.606Z,68.58
2023-04-15T02:07:07.724Z,68.47
2023-04-15T02:09:34.827Z,68.70
2023-04-15T02:12:01.993Z,68.73
2023-04-15T02:14:29.090Z,68.89
2023-04-15T02:16:56.966Z,68.84
2023-04-15T02:19:24.086Z,69.13
2023-04-15T02:21:51.658Z,68.88
2023-04-15T02:24:18.866Z,69.14
2023-04-15T02:26:48.012Z,69.08
2023-04-15T02:29:15.253Z,69.29
2023-04-15T02:31:42.655Z,69.25
2023-04-15T02:34:09.728Z,69.29
2023-04-15T02:36:37.188Z,69.41
2023-04-15T02:39:04.553Z,69.39
2023-04-15T02:41:33.816Z,69.49
2023-04-15T02:44:00.952Z,69.47
2023-04-15T02:46:28.108Z,69.54
2023-04-15T02:48:55.591Z,69.69
2023-04-15T02:51:23.149Z,69.76
2023-04-15T02:53:51.048Z,69.90
2023-04-15T02:56:20.039Z,69.81
2023-04-15T02:58:47.293Z,69.99
2023-04-15T03:01:14.967Z,69.86
2023-04-15T03:03:42.179Z,69.89
2023-04-15T03:06:09.638Z,70.21
2023-04-15T03:08:37.298Z,69.91
2023-04-15T03:11:05.291Z,70.30
2023-04-15T03:13:32.413Z,70.25
2023-04-15T03:15:59.661Z,70.37
2023-04-15T03:18:27.051Z,70.35
2023-04-15T03:20:54.788Z,70.32
2023-04-15T03:23:21.986Z,70.63
2023-04-15T03:25:49.207Z,70.51
2023-04-15T03:28:16.397Z,70.51
2023-04-15T03:30:43.544Z,70.60
2023-04-15T03:33:11.079Z,70.60
2023-04-15T03:35:38.433Z,70.58
2023-04-15T03:38:05.591Z,70.53
2023-04-15T03:40:32.787Z,70.60
2023-04-15T03:42:59.885Z,70.74
2023-04-15T03:45:27.069Z,70.90
2023-04-15T05:05:16.414Z,71.74
2023-04-15T05:07:43.551Z,72.13
2023-04-15T05:10:11.037Z,72.29
2023-04-15T05:12:38.859Z,72.12
2023-04-15T05:15:07.357Z,72.46
2023-04-15T05:17:35.561Z,72.47
2023-04-15T05:20:03.908Z,72.62
2023-04-15T05:22:31.134Z,72.68
2023-04-15T05:24:58.292Z,72.86
2023-04-15T05:27:25.853Z,72.88
2023-04-15T05:29:52.950Z,72.79
2023-04-15T05:32:20.086Z,72.66
2023-04-15T05:34:47.345Z,73.16
2023-04-15T05:37:14.516Z,73.05
2023-04-15T05:39:42.441Z,73.16
2023-04-15T05:42:09.754Z,73.33
2023-04-15T05:44:37.101Z,73.50
2023-04-15T05:47:04.182Z,73.48
2023-04-15T05:49:31.261Z,73.60
2023-04-15T05:51:58.362Z,73.51
2023-04-15T05:54:27.971Z,73.70
2023-04-15T05:56:56.571Z,73.85
2023-04-15T05:59:24.145Z,73.92
2023-04-15T06:01:52.591Z,73.72
2023-04-15T06:04:19.917Z,74.24
2023-04-15T06:06:47.382Z,74.28
2023-04-15T06:09:14.471Z,74.29
2023-04-15T06:11:41.652Z,74.51
2023-04-15T06:14:08.774Z,74.53
2023-04-15T06:16:36.834Z,74.49
2023-04-15T06:19:04.365Z,74.87
2023-04-15T06:21:32.108Z,74.68
2023-04-15T06:24:01.672Z,75.10
2023-04-15T06:26:28.810Z,75.06
2023-04-15T06:28:56.009Z,74.96
2023-04-15T06:31:23.372Z,75.10
2023-04-15T06:33:50.866Z,74.92
2023-04-15T06:36:18.043Z,74.91
2023-04-15T06:38:45.120Z,74.81
2023-04-15T06:41:12.211Z,74.84
2023-04-15T06:43:40.066Z,75.02
2023-04-15T06:46:07.245Z,74.81
2023-04-15T06:48:34.358Z,74.62
2023-04-15T06:51:01.555Z,74.16
2023-04-15T06:53:28.657Z,73.94
2023-04-15T06:55:56.062Z,73.89
2023-04-15T06:58:26.907Z,73.50
2023-04-15T07:00:54.349Z,73.26
2023-04-15T07:03:21.518Z,73.08
2023-04-15T07:05:49.101Z,72.90
2023-04-15T07:08:16.180Z,73.06
2023-04-15T07:10:43.271Z,72.77
2023-04-15T07:13:10.371Z,72.51
2023-04-15T07:15:37.490Z,72.44
2023-04-15T07:18:04.650Z,72.53
2023-04-15T07:20:31.936Z,72.65
2023-04-15T07:22:59.186Z,72.51
2023-04-15T07:25:26.598Z,72.50
2023-04-15T07:27:54.891Z,72.50
2023-04-15T07:30:22.034Z,72.38
2023-04-15T07:32:49.248Z,72.55
2023-04-15T07:35:16.445Z,72.55
2023-04-15T07:37:43.733Z,72.44
2023-04-15T07:40:11.857Z,72.49
2023-04-15T07:42:41.186Z,72.58
2023-04-15T07:45:09.666Z,72.45
2023-04-15T07:47:36.886Z,72.47
2023-04-15T07:50:04.162Z,72.36
2023-04-15T07:52:31.530Z,72.32
2023-04-15T07:54:58.615Z,72.34
2023-04-15T07:57:26.180Z,72.02
2023-04-15T07:59:53.538Z,72.04
2023-04-15T08:02:20.898Z,71.98
2023-04-15T08:04:48.842Z,72.07
2023-04-15T08:07:16.371Z,71.73
2023-04-15T08:09:43.577Z,71.84
2023-04-15T08:12:13.544Z,71.71
2023-04-15T08:14:40.839Z,71.54
2023-04-15T08:17:08.023Z,71.46
2023-04-15T08:19:35.138Z,71.30
2023-04-15T08:22:02.670Z,71.24
2023-04-15T08:24:31.751Z,71.12
2023-04-15T08:26:59.057Z,70.73
2023-04-15T08:29:26.184Z,70.48
2023-04-15T08:31:54.311Z,70.47
2023-04-15T08:34:21.443Z,70.12
2023-04-15T08:36:49.160Z,69.92
2023-04-15T08:39:16.251Z,70.02
2023-04-15T08:41:53.000Z,69.87
2023-04-15T08:44:21.089Z,69.67
2023-04-15T08:46:48.992Z,69.58
2023-04-15T08:49:16.797Z,69.50
2023-04-15T08:51:45.430Z,69.28
2023-04-15T08:54:12.631Z,69.06
2023-04-15T08:56:40.841Z,68.82
2023-04-15T08:59:08.282Z,68.96
2023-04-15T09:01:36.035Z,68.78
2023-04-15T09:04:06.827Z,68.48
2023-04-15T09:06:34.451Z,68.57
2023-04-15T09:09:01.699Z,68.43
2023-04-15T09:11:31.598Z,67.93
2023-04-15T09:13:58.674Z,67.94
2023-04-15T09:16:26.263Z,67.94
2023-04-15T09:18:54.216Z,67.73
2023-04-15T09:21:23.866Z,67.64
2023-04-15T09:24:01.975Z,67.60
2023-04-15T09:26:38.006Z,67.74
2023-04-15T09:29:09.518Z,67.90
2023-04-15T09:31:40.783Z,67.48
2023-04-15T09:34:08.336Z,67.32
2023-04-15T09:36:57.112Z,66.97
2023-04-15T09:39:24.673Z,67.02
2023-04-15T09:42:07.109Z,67.06
2023-04-15T09:44:34.288Z,67.14
2023-04-15T09:47:01.933Z,66.72
2023-04-15T09:49:29.174Z,66.43
2023-04-15T09:52:05.595Z,65.89
2023-04-15T09:54:38.528Z,65.79
2023-04-15T09:57:07.786Z,66.02
2023-04-15T09:59:35.026Z,65.78
2023-04-15T10:02:06.579Z,65.32
2023-04-15T10:04:36.476Z,65.53
2023-04-15T10:07:06.291Z,65.68
2023-04-15T10:09:34.956Z,65.43
2023-04-15T10:12:04.431Z,65.19
2023-04-15T10:14:38.834Z,64.81
2023-04-15T10:17:06.627Z,64.36
2023-04-15T10:19:37.332Z,64.28
2023-04-15T10:22:05.074Z,64.21
2023-04-15T10:24:33.155Z,64.34
2023-04-15T10:27:01.435Z,64.08
2023-04-15T10:29:28.803Z,64.24
2023-04-15T10:31:56.946Z,63.89
2023-04-15T10:34:25.545Z,63.89
2023-04-15T10:36:56.746Z,63.95
2023-04-15T10:39:41.832Z,63.71
2023-04-15T10:42:19.792Z,63.67
2023-04-15T10:44:52.043Z,63.59
2023-04-15T10:47:21.708Z,63.59
2023-04-15T10:50:00.529Z,62.99
2023-04-15T10:52:29.588Z,63.04
2023-04-15T10:55:26.987Z,63.12
2023-04-15T10:57:56.361Z,62.89
2023-04-15T11:00:26.966Z,62.49
2023-04-15T11:02:58.806Z,62.22
2023-04-15T11:05:52.546Z,61.84
2023-04-15T11:08:20.281Z,62.10
2023-04-15T11:10:47.238Z,62.04
2023-04-15T11:13:21.946Z,62.31
2023-04-15T11:15:50.529Z,62.29
2023-04-15T11:18:26.174Z,62.14
2023-04-15T11:21:02.400Z,61.94
2023-04-15T11:23:41.520Z,62.00
2023-04-15T11:26:12.407Z,62.38
2023-04-15T11:28:43.655Z,62.02
2023-04-15T11:31:16.779Z,61.97
2023-04-15T11:34:01.809Z,61.55
2023-04-15T11:36:32.182Z,61.67
2023-04-15T11:39:00.315Z,61.58
2023-04-15T11:41:27.504Z,61.85
2023-04-15T11:43:55.387Z,61.71
2023-04-15T11:46:30.022Z,61.11
2023-04-15T11:48:57.097Z,61.40
2023-04-15T11:51:25.020Z,61.12
2023-04-15T11:53:52.469Z,61.11
2023-04-15T11:56:26.306Z,61.01
2023-04-15T11:58:57.365Z,60.86
2023-04-15T12:01:39.551Z,60.81
2023-04-15T12:04:23.234Z,60.56
2023-04-15T12:06:52.208Z,61.06
2023-04-15T12:09:20.551Z,61.09
2023-04-15T12:11:55.433Z,60.69
2023-04-15T12:14:26.690Z,60.87
2023-04-15T12:17:14.253Z,60.74
2023-04-15T12:19:43.286Z,61.12
2023-04-15T12:22:13.003Z,61.33
2023-04-15T12:24:40.654Z,61.57
2023-04-15T12:27:10.018Z,61.75
2023-04-15T12:29:39.604Z,61.83
2023-04-15T12:32:15.290Z,61.60
2023-04-15T12:34:51.129Z,61.85
2023-04-15T12:37:18.312Z,61.81
2023-04-15T12:39:49.037Z,61.98
2023-04-15T12:42:16.988Z,62.08
2023-04-15T12:44:44.130Z,62.26
2023-04-15T12:47:13.670Z,62.45
2023-04-15T12:49:41.223Z,62.39
2023-04-15T12:52:08.720Z,62.43
2023-04-15T12:54:36.508Z,62.29
2023-04-15T12:57:06.836Z,62.68
2023-04-15T12:59:35.464Z,62.57
2023-04-15T13:02:03.366Z,62.74
2023-04-15T13:04:31.494Z,62.58
2023-04-15T13:06:58.975Z,62.59
2023-04-15T13:09:26.192Z,62.91
2023-04-15T13:11:54.981Z,63.07
2023-04-15T13:14:22.161Z,62.95
2023-04-15T13:16:49.360Z,63.22
2023-04-15T13:19:16.557Z,63.17
2023-04-15T13:21:43.715Z,63.49
2023-04-15T13:24:10.913Z,63.61
2023-04-15T13:26:38.164Z,63.47
2023-04-15T13:29:05.466Z,63.76
2023-04-15T13:31:32.672Z,63.73
2023-04-15T13:33:59.883Z,63.85
2023-04-15T13:36:27.577Z,63.90
2023-04-15T13:38:55.709Z,64.21
2023-04-15T13:41:22.922Z,64.12
2023-04-15T13:43:50.031Z,64.07
2023-04-15T13:46:17.180Z,63.89
2023-04-15T13:48:44.295Z,64.02
2023-04-15T13:51:11.381Z,63.90
2023-04-15T13:53:39.781Z,64.04
2023-04-15T13:56:08.741Z,63.96
2023-04-15T13:58:37.370Z,63.88
2023-04-15T14:01:06.321Z,64.01
2023-04-15T14:03:36.219Z,64.14
2023-04-15T14:06:04.351Z,64.40
2023-04-15T14:08:31.836Z,64.52
2023-04-15T14:10:58.972Z,64.50
2023-04-15T14:13:26.081Z,64.67
2023-04-15T14:15:53.628Z,64.83
2023-04-15T14:18:20.981Z,64.81
2023-04-15T14:20:48.062Z,64.73
2023-04-15T14:23:15.191Z,64.79
2023-04-15T14:25:42.337Z,64.72
2023-04-15T14:28:09.480Z,64.83
2023-04-15T14:30:36.613Z,65.11
2023-04-15T14:33:04.181Z,65.37
2023-04-15T14:35:31.767Z,65.33
2023-04-15T14:37:58.939Z,65.20
2023-04-15T14:40:26.167Z,65.24
2023-04-15T14:42:53.628Z,65.70
2023-04-15T14:45:21.005Z,65.78
2023-04-15T14:47:48.843Z,66.02
2023-04-15T14:50:16.010Z,65.97
2023-04-15T14:52:43.196Z,66.43
2023-04-15T14:55:12.193Z,66.46
2023-04-15T14:57:40.491Z,66.86
2023-04-15T15:00:10.056Z,66.83
2023-04-15T15:02:40.538Z,66.90
2023-04-15T15:05:09.831Z,66.79
2023-04-15T15:07:39.640Z,66.94
2023-04-15T15:10:07.538Z,67.10
2023-04-15T15:12:34.783Z,67.30
2023-04-15T15:15:06.901Z,67.20
2023-04-15T15:17:39.816Z,67.31
2023-04-15T15:20:07.964Z,67.38
2023-04-15T15:22:35.046Z,67.42
2023-04-15T15:25:02.436Z,67.33
2023-04-15T15:27:29.603Z,67.48
2023-04-15T15:29:57.416Z,67.61
2023-04-15T15:32:25.240Z,67.80
2023-04-15T15:34:52.831Z,68.13
2023-04-15T15:37:19.927Z,68.27
2023-04-15T15:39:47.119Z,68.22
2023-04-15T15:42:14.211Z,68.60
2023-04-15T15:44:41.373Z,68.54
2023-04-15T15:47:08.710Z,68.59
2023-04-15T15:49:35.813Z,68.61
2023-04-15T15:52:03.103Z,68.68
2023-04-15T15:54:30.197Z,68.69
2023-04-15T15:56:57.704Z,68.89
2023-04-15T15:59:25.943Z,68.97
2023-04-15T16:01:53.464Z,69.02
2023-04-15T16:04:21.115Z,69.25
2023-04-15T16:06:48.795Z,69.05
2023-04-15T16:09:16.306Z,69.19
2023-04-15T16:11:44.550Z,69.18
2023-04-15T16:14:11.865Z,69.33
2023-04-15T16:16:42.135Z,69.15
2023-04-15T16:19:09.242Z,69.15
2023-04-15T16:21:36.740Z,69.39
2023-04-15T16:24:03.892Z,69.35
2023-04-15T16:26:30.989Z,69.63
2023-04-15T16:28:58.214Z,69.66
2023-04-15T16:31:25.675Z,69.66
2023-04-15T16:33:52.795Z,69.83
2023-04-15T16:36:19.898Z,69.74
2023-04-15T16:38:48.841Z,69.71
2023-04-15T16:41:16.525Z,69.87
2023-04-15T16:43:43.633Z,69.67
2023-04-15T16:46:10.986Z,69.76
2023-04-15T16:48:38.290Z,69.94
2023-04-15T16:51:05.661Z,69.74
2023-04-15T16:53:32.720Z,70.09
2023-04-15T16:55:59.803Z,70.14
2023-04-15T16:58:27.919Z,70.09
2023-04-15T17:00:55.587Z,70.19
2023-04-15T17:03:23.005Z,70.35
2023-04-15T17:05:50.604Z,70.27
2023-04-15T17:08:17.676Z,70.50
2023-04-15T17:10:45.561Z,70.50
2023-04-15T17:13:12.654Z,70.53
2023-04-15T17:15:40.891Z,70.59
2023-04-15T17:18:08.821Z,70.81
2023-04-15T17:20:36.120Z,70.76
2023-04-15T17:23:04.144Z,70.79
2023-04-15T17:25:31.376Z,70.82
2023-04-15T17:27:58.483Z,71.03
2023-04-15T17:30:25.756Z,70.91
2023-04-15T17:32:52.921Z,71.25
2023-04-15T17:35:20.137Z,71.31
2023-04-15T17:37:47.230Z,71.33
2023-04-15T17:40:15.023Z,71.32
2023-04-15T17:42:42.218Z,71.42
2023-04-15T17:45:09.905Z,71.72
2023-04-15T17:47:37.166Z,71.67
2023-04-15T17:50:04.443Z,71.61
2023-04-15T17:52:31.583Z,71.80
2023-04-15T17:54:58.731Z,71.99
2023-04-15T17:57:25.921Z,71.86
2023-04-15T17:59:53.456Z,72.13
2023-04-15T18:02:20.881Z,72.06
2023-04-15T18:04:48.284Z,72.09
2023-04-15T18:07:15.792Z,72.32
2023-04-15T18:09:44.411Z,72.13
2023-04-15T18:12:11.554Z,72.46
2023-04-15T18:14:38.679Z,72.50
2023-04-15T18:17:05.891Z,72.41
2023-04-15T18:19:33.076Z,72.77
2023-04-15T18:22:00.745Z,72.72
2023-04-15T18:24:28.362Z,72.67
2023-04-15T18:26:56.600Z,72.83
2023-04-15T18:29:24.173Z,72.99
2023-04-15T18:31:52.842Z,73.09
2023-04-15T18:34:20.080Z,73.29
2023-04-15T18:36:47.175Z,73.33
2023-04-15T18:39:14.275Z,73.35
2023-04-15T18:41:41.437Z,73.48
2023-04-15T18:44:08.556Z,73.63
2023-04-15T18:46:35.957Z,73.85
2023-04-15T18:49:03.326Z,73.70
2023-04-15T18:51:30.637Z,73.99
2023-04-15T18:53:57.767Z,73.86
2023-04-15T18:56:25.479Z,74.18
2023-04-15T18:59:20.790Z,74.43
2023-04-15T19:01:40.348Z,74.74
2023-04-15T19:04:07.638Z,74.68
2023-04-15T19:06:34.865Z,74.94
2023-04-15T19:09:02.793Z,75.34
2023-04-15T19:11:30.076Z,75.32
2023-04-15T19:13:57.171Z,75.56
2023-04-15T19:16:25.337Z,75.68
2023-04-15T19:18:52.768Z,75.57
2023-04-15T19:21:19.904Z,75.91
2023-04-15T19:23:48.296Z,75.88
2023-04-15T19:26:15.478Z,76.01
2023-04-15T19:28:42.614Z,76.25
2023-04-15T19:31:09.867Z,76.29
2023-04-15T19:33:37.024Z,76.41
2023-04-15T19:36:06.637Z,76.55
2023-04-15T19:38:37.576Z,76.70
2023-04-15T19:41:05.003Z,76.86
2023-04-15T19:43:33.124Z,76.92
2023-04-15T19:46:00.431Z,76.91
2023-04-15T19:48:27.558Z,77.14
2023-04-15T19:50:55.492Z,76.92
2023-04-15T19:53:22.635Z,76.97
2023-04-15T19:55:49.735Z,77.22
2023-04-15T19:58:16.839Z,77.35
2023-04-15T20:00:43.946Z,77.24
2023-04-15T20:03:11.456Z,77.45
2023-04-15T20:05:38.706Z,77.37
2023-04-15T20:08:05.830Z,77.73
2023-04-15T20:10:32.941Z,77.60
2023-04-15T20:13:00.232Z,77.62
2023-04-15T20:15:27.446Z,77.60
2023-04-15T20:17:55.403Z,78.07
2023-04-15T20:20:22.967Z,78.07
2023-04-15T20:22:50.080Z,78.22
2023-04-15T20:25:17.209Z,77.88
2023-04-15T20:27:44.944Z,78.13
2023-04-15T20:30:12.248Z,78.09
2023-04-15T20:32:39.406Z,78.13
2023-04-15T20:35:07.397Z,78.11
2023-04-15T20:37:34.815Z,78.07
2023-04-15T20:40:02.503Z,78.21
2023-04-15T20:42:34.639Z,78.42
2023-04-15T20:45:02.508Z,78.36
2023-04-15T20:47:30.071Z,78.17
2023-04-15T20:49:57.282Z,78.34
2023-04-15T20:52:25.417Z,78.61
2023-04-15T20:54:52.629Z,78.51
2023-04-15T20:57:20.540Z,78.51
2023-04-15T20:59:47.751Z,78.78
2023-04-15T21:02:14.945Z,78.67
2023-04-15T21:04:42.124Z,78.81
2023-04-15T21:07:10.610Z,78.84
2023-04-15T21:09:41.501Z,78.87
2023-04-15T21:12:09.358Z,78.77
2023-04-15T21:14:37.202Z,79.15
2023-04-15T21:17:10.028Z,79.26
2023-04-15T21:19:38.449Z,79.27
2023-04-15T21:22:05.541Z,79.13
2023-04-15T21:24:32.691Z,79.17
2023-04-15T21:26:59.796Z,79.25
2023-04-15T21:29:26.942Z,79.60
2023-04-15T21:31:55.542Z,79.69
2023-04-15T21:34:22.810Z,79.79
2023-04-15T21:36:49.958Z,79.77
2023-04-15T21:39:17.421Z,79.69
2023-04-15T21:41:44.579Z,79.61
2023-04-15T21:44:13.248Z,79.87
2023-04-15T21:46:41.818Z,80.11
2023-04-15T21:49:12.880Z,80.22
2023-04-15T21:51:40.024Z,80.10
2023-04-15T21:54:07.150Z,80.29
2023-04-15T21:56:34.298Z,80.22
2023-04-15T21:59:01.567Z,80.34
2023-04-15T22:01:28.712Z,80.37
2023-04-15T22:03:58.390Z,80.45
2023-04-15T22:06:27.236Z,80.70
2023-04-15T22:08:57.834Z,80.82
2023-04-15T22:11:28.779Z,81.03
2023-04-15T22:13:57.610Z,80.89
2023-04-15T22:16:28.521Z,80.99
2023-04-15T22:18:56.600Z,81.07
2023-04-15T22:21:24.732Z,81.31
2023-04-15T22:23:52.453Z,81.06
2023-04-15T22:26:19.644Z,81.58
2023-04-15T22:28:46.742Z,81.35
2023-04-15T22:31:15.029Z,81.49
2023-04-15T22:33:42.213Z,81.70
2023-04-15T22:36:09.361Z,81.59
2023-04-15T22:38:36.485Z,81.85
2023-04-15T22:41:03.543Z,82.05
2023-04-15T22:43:30.680Z,82.04
2023-04-15T22:45:58.015Z,81.70
2023-04-15T22:48:25.940Z,81.99
2023-04-15T22:50:53.735Z,82.06
2023-04-15T22:53:21.049Z,82.30
2023-04-15T22:55:48.921Z,82.18
2023-04-15T22:58:17.321Z,82.14
2023-04-15T23:00:45.053Z,82.41
2023-04-15T23:03:12.349Z,82.65
2023-04-15T23:05:41.305Z,82.56
2023-04-15T23:08:08.913Z,82.47
2023-04-15T23:10:36.003Z,82.72
2023-04-15T23:13:03.084Z,82.43
2023-04-15T23:15:30.266Z,82.63
2023-04-15T23:17:57.523Z,82.40
2023-04-15T23:20:25.399Z,82.54
2023-04-15T23:22:52.612Z,82.71
2023-04-15T23:25:22.828Z,82.78
2023-04-15T23:27:49.903Z,82.77
2023-04-15T23:30:17.013Z,82.91
2023-04-15T23:32:44.186Z,82.80
2023-04-15T23:35:11.468Z,82.79
2023-04-15T23:37:38.549Z,82.93
2023-04-15T23:40:06.626Z,83.09
2023-04-15T23:42:33.756Z,82.88
2023-04-15T23:45:01.024Z,83.17
2023-04-15T23:47:28.112Z,82.88
2023-04-15T23:49:58.302Z,83.16
2023-04-15T23:52:25.902Z,83.08
2023-04-15T23:54:53.014Z,83.24
2023-04-15T23:57:20.223Z,83.38
2023-04-15T23:59:47.302Z,83.20
